KBBG

Branson Airport

Branson, Missouri, USA
METAR KBBG 230955Z AUTO 00000KT 1/4SM FG OVC002 05/05 A3022 RMK AO2
Observed Flight Rules
Feb-23 @ 09:55 UTC (38 minutes ago) Instrument Flight Rules
Wind Visibility Clouds Conditions
Calm 1/4 miles
  • Overcast at 200' AGL
  • Fog
Temperatures Readings
Current 5°C / 41°F
Dewpoint 5°C / 41°F
Humidity 100%
Altimeter 30.22" Hg
Pressure 1023 hPa
Elevation 397
METAR KBBG 230955Z AUTO 00000KT 1/4SM FG OVC002 05/05 A3022 RMK AO2
Observed Flight Rules
Feb-23 @ 09:55 UTC
(38 minutes ago)
LIFR
Wind Visibility
Calm 1/4 miles
Clouds
  • Overcast at 200' AGL
Conditions
  • Fog
Temperature Dewpoint
5°C / 41°F 5°C / 41°F
Humidity Altimeter Pressure
100% 30.22" Hg 1023 hPa